Texas — 9HA3095 — position and weather

sailwx.info

Track history (hours):
 
Tides and Currents Weather Stations Pressure Air Temp Water Temp Dewpoint Dewpoint Depression Visibility Wind Speed Wind Dir Waves Ship Positions

Texas

Last reported at 2017-Nov-20 00:31 UTC. Time now 2017-Nov-21 10:23 UTC.
Position N 52°10' E 002°05'.

Length 333 m; draft 10.8 m.

Type: Tanker. MMSI: 229132000.

Date/timePositionNaut miles runAvg speedWind from/ knotsBaromVisibWave heightAir tempDewpointWater temp
2017-Nov-20 00:31N 52°10' E 002°05'2 4.1
2017-Nov-20 00:01N 52°08' E 002°06'1 1.9
2017-Nov-19 23:31N 52°07' E 002°07'1 2.0
2017-Nov-19 23:01N 52°08' E 002°08'1 2.4
2017-Nov-19 22:31N 52°09' E 002°09'1 2.6
2017-Nov-19 22:01N 52°10' E 002°09'0 0.1
2017-Nov-19 14:37N 52°11' E 002°09'0 4.2
2017-Nov-19 14:31N 52°10' E 002°09'2 5.0
2017-Nov-19 14:01N 52°08' E 002°11'3 2.0
2017-Nov-19 12:44N 52°06' E 002°10'0 1.2
2017-Nov-19 12:31N 52°06' E 002°10'1 1.1
2017-Nov-19 12:00N 52°06' E 002°09'0 0.6
2017-Nov-19 11:31N 52°06' E 002°09'0 0.8
2017-Nov-19 11:01N 52°06' E 002°09'1 2.1
2017-Nov-19 10:31N 52°05' E 002°10'0 0.8
2017-Nov-19 10:01N 52°04' E 002°09'1 2.0
2017-Nov-19 09:31N 52°05' E 002°09'1 2.0
2017-Nov-19 09:01N 52°06' E 002°08'1 2.4
2017-Nov-19 08:30N 52°07' E 002°08'1 1.4
2017-Nov-19 08:01N 52°08' E 002°07'1 1.7
2017-Nov-19 07:30N 52°09' E 002°07'0 0.5
2017-Nov-19 07:01N 52°09' E 002°07'0 0.9
2017-Nov-19 06:31N 52°09' E 002°06'1 2.0
2017-Nov-19 06:01N 52°08' E 002°04'0 0.6
2017-Nov-19 05:31N 52°08' E 002°04'0 0.9
2017-Nov-19 05:01N 52°08' E 002°05'0 0.4
2017-Nov-19 04:31N 52°08' E 002°05'0 0.2
2017-Nov-19 04:01N 52°08' E 002°05'0 0.6
2017-Nov-19 03:31N 52°08' E 002°05'0 0.6
2017-Nov-19 03:01N 52°08' E 002°06'0 0.5
2017-Nov-19 02:31N 52°08' E 002°05'0 0.4
2017-Nov-19 02:01N 52°07' E 002°05'0 0.2
2017-Nov-19 01:31N 52°07' E 002°05'0 0.2
2017-Nov-19 01:01N 52°07' E 002°05'0 0.6
2017-Nov-19 00:31N 52°08' E 002°05'1 1.0
2017-Nov-19 00:01N 52°08' E 002°05'1 1.7
2017-Nov-18 23:31N 52°09' E 002°06'1 2.1
2017-Nov-18 23:01N 52°10' E 002°06'11 0.8
2017-Nov-18 09:01N 52°21' E 002°06'0 0.7
2017-Nov-18 08:58N 52°21' E 002°06'1 0.7
2017-Nov-18 07:39N 52°22' E 002°06'0 0.6
2017-Nov-18 07:31N 52°22' E 002°06'0 0.0
2017-Nov-17 19:20N 52°22' E 002°06'0 0.0
2017-Nov-17 18:54N 52°22' E 002°06'0 0.1
2017-Nov-17 18:30N 52°22' E 002°06'0 0.1
2017-Nov-17 16:55N 52°22' E 002°06'0 0.0
2017-Nov-17 12:16N 52°22' E 002°06'0 0.1
2017-Nov-17 11:49N 52°22' E 002°06'0 0.3
2017-Nov-17 11:23N 52°22' E 002°06'0 0.3
2017-Nov-17 11:00N 52°22' E 002°06'0 0.2
2017-Nov-17 10:30N 52°22' E 002°06'0 0.2
2017-Nov-17 10:00N 52°22' E 002°06'0 0.1
2017-Nov-17 09:30N 52°22' E 002°06'0 0.0
2017-Nov-17 09:00N 52°22' E 002°06'0 0.0
2017-Nov-17 08:30N 52°22' E 002°06'0 0.0
2017-Nov-17 08:00N 52°22' E 002°06'0 0.0
2017-Nov-17 07:30N 52°22' E 002°06'0 0.0
2017-Nov-17 07:00N 52°22' E 002°06'0 0.0
2017-Nov-17 06:30N 52°22' E 002°06'0 0.0
2017-Nov-17 06:00N 52°22' E 002°06'0 0.1
2017-Nov-17 05:30N 52°22' E 002°06'0 0.0
2017-Nov-17 05:00N 52°22' E 002°06'0 0.3
2017-Nov-17 04:29N 52°22' E 002°06'0 0.1
2017-Nov-17 02:10N 52°22' E 002°06'0 0.0
2017-Nov-17 01:57N 52°22' E 002°06'0 0.1
2017-Nov-16 23:46N 52°22' E 002°06'0 0.3
2017-Nov-16 23:21N 52°22' E 002°06'0 0.1
2017-Nov-16 22:54N 52°22' E 002°06'0 0.1
2017-Nov-16 22:27N 52°22' E 002°06'0 0.1
2017-Nov-16 21:55N 52°22' E 002°06'0 0.0
2017-Nov-16 21:30N 52°22' E 002°06'0 0.0
2017-Nov-16 21:00N 52°22' E 002°06'0 0.0
2017-Nov-16 20:30N 52°22' E 002°06'0 0.0
2017-Nov-16 20:00N 52°22' E 002°06'0 0.0
2017-Nov-16 19:30N 52°22' E 002°06'0 0.0
2017-Nov-16 19:00N 52°22' E 002°06'0 0.0
2017-Nov-16 18:30N 52°22' E 002°06'0 0.1
2017-Nov-16 17:57N 52°22' E 002°06'0 0.1
2017-Nov-16 17:30N 52°22' E 002°06'0 0.1
2017-Nov-16 17:00N 52°22' E 002°06'0 0.3
2017-Nov-16 16:24N 52°22' E 002°06'0 0.2
2017-Nov-16 15:58N 52°22' E 002°06'0 0.2
2017-Nov-16 14:44N 52°22' E 002°06'0 0.1
2017-Nov-16 14:29N 52°22' E 002°06'0 0.0
2017-Nov-16 14:00N 52°22' E 002°06'0 0.2
2017-Nov-16 13:29N 52°22' E 002°06'2 2.0
2017-Nov-16 12:22N 52°24' E 002°08'2 1.2
2017-Nov-16 10:49N 52°26' E 002°08'2 4.9
2017-Nov-16 10:30N 52°24' E 002°07'2 4.6
2017-Nov-16 10:00N 52°22' E 002°06'33 6.1
2017-Nov-16 04:37N 51°53' E 002°30'211.9
2017-Nov-16 04:29N 51°52' E 002°32'10 9.6
2017-Nov-16 03:25N 51°42' E 002°31'512.2
2017-Nov-16 02:59N 51°38' E 002°25'612.0
2017-Nov-16 02:30N 51°33' E 002°20'612.0
2017-Nov-16 02:00N 51°29' E 002°13'611.9
2017-Nov-16 01:30N 51°24' E 002°08'611.9
2017-Nov-16 01:00N 51°18' E 002°07'611.6
2017-Nov-16 00:30N 51°13' E 002°01'612.7
2017-Nov-16 00:00N 51°10' E 001°52'612.6
2017-Nov-15 23:30N 51°07' E 001°44'713.0
2017-Nov-15 23:00N 51°02' E 001°37'713.8
2017-Nov-15 22:30N 50°57' E 001°30'714.1
2017-Nov-15 22:00N 50°50' E 001°27'813.6
2017-Nov-15 21:25N 50°43' E 001°22'713.5
2017-Nov-15 20:54N 50°37' E 001°15'813.6
2017-Nov-15 20:19N 50°33' E 001°05'513.6
2017-Nov-15 19:59N 50°30' E 000°58'613.5
2017-Nov-15 19:30N 50°28' E 000°49'714.1
2017-Nov-15 19:00N 50°26' E 000°38'814.6
2017-Nov-15 18:29N 50°25' E 000°27'714.8
2017-Nov-15 18:00N 50°23' E 000°16'714.6
2017-Nov-15 17:30N 50°21' E 000°04'714.3
2017-Nov-15 17:00N 50°20' W 000°07'714.5
2017-Nov-15 16:30N 50°18' W 000°18'2314.3
2017-Nov-15 14:53N 50°13' W 000°53'513.9
2017-Nov-15 14:30N 50°11' W 001°01'713.9
2017-Nov-15 14:00N 50°10' W 001°11'713.3
2017-Nov-15 13:30N 50°08' W 001°21'612.9
2017-Nov-15 13:01N 50°06' W 001°31'612.4
2017-Nov-15 12:31N 50°04' W 001°40'612.1
2017-Nov-15 12:01N 50°02' W 001°49'611.9
2017-Nov-15 11:30N 50°00' W 001°58'611.5
2017-Nov-15 10:59N 49°59' W 002°07'611.4
2017-Nov-15 10:30N 49°57' W 002°15'711.5
2017-Nov-15 09:56N 49°55' W 002°25'511.9
2017-Nov-15 09:30N 49°53' W 002°32'612.1
2017-Nov-15 09:00N 49°51' W 002°41'612.4
2017-Nov-15 08:30N 49°49' W 002°50'612.6
2017-Nov-15 08:00N 49°46' W 002°59'813.0
2017-Nov-15 07:23N 49°42' W 003°09'513.1
2017-Nov-15 06:59N 49°39' W 003°16'6913.1
2017-Nov-15 01:41N 49°04' W 004°48'313.0
2017-Nov-15 01:27N 49°03' W 004°52'613.2
2017-Nov-15 00:58N 48°60' W 005°01'715.2
2017-Nov-15 00:30N 48°56' W 005°10'815.4
2017-Nov-15 00:00N 48°53' W 005°20'915.2
2017-Nov-14 23:24N 48°48' W 005°33'614.7
2017-Nov-14 22:59N 48°44' W 005°39'1614.7
2017-Nov-14 21:52N 48°30' W 005°51'1014.3
2017-Nov-14 21:11N 48°21' W 005°59'2213.9
2017-Nov-14 19:37N 48°03' W 006°17'2313.5
2017-Nov-14 17:57N 47°44' W 006°35'813.4
2017-Nov-14 17:22N 47°38' W 006°42'512.9
2017-Nov-14 17:00N 47°34' W 006°45'813.9
2017-Nov-14 16:24N 47°27' W 006°52'614.6
2017-Nov-14 16:00N 47°22' W 006°57'3214.5
2017-Nov-14 13:48N 46°55' W 007°23'55014.2
2017-Nov-12 23:02N 38°31' W 012°21'014.3
2017-Nov-12 23:00N 38°30' W 012°21'1514.3
2017-Nov-12 21:57N 38°16' W 012°26'714.2
2017-Nov-12 21:29N 38°09' W 012°29'714.3
2017-Nov-12 21:00N 38°03' W 012°31'39614.9
2017-Nov-11 18:21N 31°40' W 014°36'1114.7
2017-Nov-11 17:36N 31°30' W 014°40'514.6
2017-Nov-11 17:18N 31°25' W 014°41'514.5
2017-Nov-11 16:58N 31°21' W 014°42'714.7
2017-Nov-11 16:30N 31°14' W 014°44'714.4
2017-Nov-11 16:01N 31°07' W 014°46'1014.4
2017-Nov-11 15:21N 30°58' W 014°49'614.2
2017-Nov-11 14:57N 30°52' W 014°51'614.4
2017-Nov-11 14:30N 30°46' W 014°53'714.5
2017-Nov-11 14:01N 30°39' W 014°55'714.5
2017-Nov-11 13:30N 30°32' W 014°57'2014.5
2017-Nov-11 12:08N 30°13' W 015°03'314.8
2017-Nov-11 11:57N 30°10' W 015°04'614.6
2017-Nov-11 11:31N 30°04' W 015°06'914.7
2017-Nov-11 10:55N 29°56' W 015°09'614.8
2017-Nov-11 10:30N 29°50' W 015°10'714.8
2017-Nov-11 10:01N 29°43' W 015°13'714.8
2017-Nov-11 09:31N 29°36' W 015°15'714.5
2017-Nov-11 09:01N 29°29' W 015°17'714.9
2017-Nov-11 08:31N 29°22' W 015°19'714.9
2017-Nov-11 08:00N 29°14' W 015°21'714.4
2017-Nov-11 07:31N 29°07' W 015°23'714.4
2017-Nov-11 07:00N 29°01' W 015°26'714.6
2017-Nov-11 06:30N 28°53' W 015°28'714.6
2017-Nov-11 06:00N 28°46' W 015°30'714.2
2017-Nov-11 05:30N 28°41' W 015°35'714.3
2017-Nov-11 05:00N 28°35' W 015°40'714.2
2017-Nov-11 04:30N 28°30' W 015°45'713.9
2017-Nov-11 04:00N 28°25' W 015°50'713.9
2017-Nov-11 03:30N 28°20' W 015°56'814.2
2017-Nov-11 02:58N 28°14' W 016°02'614.1
2017-Nov-11 02:31N 28°09' W 016°06'714.0
2017-Nov-11 02:01N 28°03' W 016°11'2513.4
2017-Nov-11 00:11N 27°44' W 016°28'513.7
2017-Nov-10 23:50N 27°40' W 016°31'1214.3
2017-Nov-10 23:00N 27°29' W 016°37'  
Track history (hours):
 
Tides and Currents Weather Stations Pressure Air Temp Water Temp Dewpoint Dewpoint Depression Visibility Wind Speed Wind Dir Waves Ship Positions

Texas

Last reported at 2017-Nov-20 00:31 UTC. Time now 2017-Nov-21 10:23 UTC.
Position N 52°10' E 002°05'.

Length 333 m; draft 10.8 m.

Type: Tanker. MMSI: 229132000.

Date/timePositionNaut miles runAvg speedWind from/ knotsBaromVisibWave heightAir tempDewpointWater temp
2017-Nov-20 00:31N 52°10' E 002°05'2 4.1
2017-Nov-20 00:01N 52°08' E 002°06'1 1.9
2017-Nov-19 23:31N 52°07' E 002°07'1 2.0
2017-Nov-19 23:01N 52°08' E 002°08'1 2.4
2017-Nov-19 22:31N 52°09' E 002°09'1 2.6
2017-Nov-19 22:01N 52°10' E 002°09'0 0.1
2017-Nov-19 14:37N 52°11' E 002°09'0 4.2
2017-Nov-19 14:31N 52°10' E 002°09'2 5.0
2017-Nov-19 14:01N 52°08' E 002°11'3 2.0
2017-Nov-19 12:44N 52°06' E 002°10'0 1.2
2017-Nov-19 12:31N 52°06' E 002°10'1 1.1
2017-Nov-19 12:00N 52°06' E 002°09'0 0.6
2017-Nov-19 11:31N 52°06' E 002°09'0 0.8
2017-Nov-19 11:01N 52°06' E 002°09'1 2.1
2017-Nov-19 10:31N 52°05' E 002°10'0 0.8
2017-Nov-19 10:01N 52°04' E 002°09'1 2.0
2017-Nov-19 09:31N 52°05' E 002°09'1 2.0
2017-Nov-19 09:01N 52°06' E 002°08'1 2.4
2017-Nov-19 08:30N 52°07' E 002°08'1 1.4
2017-Nov-19 08:01N 52°08' E 002°07'1 1.7
2017-Nov-19 07:30N 52°09' E 002°07'0 0.5
2017-Nov-19 07:01N 52°09' E 002°07'0 0.9
2017-Nov-19 06:31N 52°09' E 002°06'1 2.0
2017-Nov-19 06:01N 52°08' E 002°04'0 0.6
2017-Nov-19 05:31N 52°08' E 002°04'0 0.9
2017-Nov-19 05:01N 52°08' E 002°05'0 0.4
2017-Nov-19 04:31N 52°08' E 002°05'0 0.2
2017-Nov-19 04:01N 52°08' E 002°05'0 0.6
2017-Nov-19 03:31N 52°08' E 002°05'0 0.6
2017-Nov-19 03:01N 52°08' E 002°06'0 0.5
2017-Nov-19 02:31N 52°08' E 002°05'0 0.4
2017-Nov-19 02:01N 52°07' E 002°05'0 0.2
2017-Nov-19 01:31N 52°07' E 002°05'0 0.2
2017-Nov-19 01:01N 52°07' E 002°05'0 0.6
2017-Nov-19 00:31N 52°08' E 002°05'1 1.0
2017-Nov-19 00:01N 52°08' E 002°05'1 1.7
2017-Nov-18 23:31N 52°09' E 002°06'1 2.1
2017-Nov-18 23:01N 52°10' E 002°06'11 0.8
2017-Nov-18 09:01N 52°21' E 002°06'0 0.7
2017-Nov-18 08:58N 52°21' E 002°06'1 0.7
2017-Nov-18 07:39N 52°22' E 002°06'0 0.6
2017-Nov-18 07:31N 52°22' E 002°06'0 0.0
2017-Nov-17 19:20N 52°22' E 002°06'0 0.0
2017-Nov-17 18:54N 52°22' E 002°06'0 0.1
2017-Nov-17 18:30N 52°22' E 002°06'0 0.1
2017-Nov-17 16:55N 52°22' E 002°06'0 0.0
2017-Nov-17 12:16N 52°22' E 002°06'0 0.1
2017-Nov-17 11:49N 52°22' E 002°06'0 0.3
2017-Nov-17 11:23N 52°22' E 002°06'0 0.3
2017-Nov-17 11:00N 52°22' E 002°06'0 0.2
2017-Nov-17 10:30N 52°22' E 002°06'0 0.2
2017-Nov-17 10:00N 52°22' E 002°06'0 0.1
2017-Nov-17 09:30N 52°22' E 002°06'0 0.0
2017-Nov-17 09:00N 52°22' E 002°06'0 0.0
2017-Nov-17 08:30N 52°22' E 002°06'0 0.0
2017-Nov-17 08:00N 52°22' E 002°06'0 0.0
2017-Nov-17 07:30N 52°22' E 002°06'0 0.0
2017-Nov-17 07:00N 52°22' E 002°06'0 0.0
2017-Nov-17 06:30N 52°22' E 002°06'0 0.0
2017-Nov-17 06:00N 52°22' E 002°06'0 0.1
2017-Nov-17 05:30N 52°22' E 002°06'0 0.0
2017-Nov-17 05:00N 52°22' E 002°06'0 0.3
2017-Nov-17 04:29N 52°22' E 002°06'0 0.1
2017-Nov-17 02:10N 52°22' E 002°06'0 0.0
2017-Nov-17 01:57N 52°22' E 002°06'0 0.1
2017-Nov-16 23:46N 52°22' E 002°06'0 0.3
2017-Nov-16 23:21N 52°22' E 002°06'0 0.1
2017-Nov-16 22:54N 52°22' E 002°06'0 0.1
2017-Nov-16 22:27N 52°22' E 002°06'0 0.1
2017-Nov-16 21:55N 52°22' E 002°06'0 0.0
2017-Nov-16 21:30N 52°22' E 002°06'0 0.0
2017-Nov-16 21:00N 52°22' E 002°06'0 0.0
2017-Nov-16 20:30N 52°22' E 002°06'0 0.0
2017-Nov-16 20:00N 52°22' E 002°06'0 0.0
2017-Nov-16 19:30N 52°22' E 002°06'0 0.0
2017-Nov-16 19:00N 52°22' E 002°06'0 0.0
2017-Nov-16 18:30N 52°22' E 002°06'0 0.1
2017-Nov-16 17:57N 52°22' E 002°06'0 0.1
2017-Nov-16 17:30N 52°22' E 002°06'0 0.1
2017-Nov-16 17:00N 52°22' E 002°06'0 0.3
2017-Nov-16 16:24N 52°22' E 002°06'0 0.2
2017-Nov-16 15:58N 52°22' E 002°06'0 0.2
2017-Nov-16 14:44N 52°22' E 002°06'0 0.1
2017-Nov-16 14:29N 52°22' E 002°06'0 0.0
2017-Nov-16 14:00N 52°22' E 002°06'0 0.2
2017-Nov-16 13:29N 52°22' E 002°06'2 2.0
2017-Nov-16 12:22N 52°24' E 002°08'2 1.2
2017-Nov-16 10:49N 52°26' E 002°08'2 4.9
2017-Nov-16 10:30N 52°24' E 002°07'2 4.6
2017-Nov-16 10:00N 52°22' E 002°06'33 6.1
2017-Nov-16 04:37N 51°53' E 002°30'211.9
2017-Nov-16 04:29N 51°52' E 002°32'10 9.6
2017-Nov-16 03:25N 51°42' E 002°31'512.2
2017-Nov-16 02:59N 51°38' E 002°25'612.0
2017-Nov-16 02:30N 51°33' E 002°20'612.0
2017-Nov-16 02:00N 51°29' E 002°13'611.9
2017-Nov-16 01:30N 51°24' E 002°08'611.9
2017-Nov-16 01:00N 51°18' E 002°07'611.6
2017-Nov-16 00:30N 51°13' E 002°01'612.7
2017-Nov-16 00:00N 51°10' E 001°52'612.6
2017-Nov-15 23:30N 51°07' E 001°44'713.0
2017-Nov-15 23:00N 51°02' E 001°37'713.8
2017-Nov-15 22:30N 50°57' E 001°30'714.1
2017-Nov-15 22:00N 50°50' E 001°27'813.6
2017-Nov-15 21:25N 50°43' E 001°22'713.5
2017-Nov-15 20:54N 50°37' E 001°15'813.6
2017-Nov-15 20:19N 50°33' E 001°05'513.6
2017-Nov-15 19:59N 50°30' E 000°58'613.5
2017-Nov-15 19:30N 50°28' E 000°49'714.1
2017-Nov-15 19:00N 50°26' E 000°38'814.6
2017-Nov-15 18:29N 50°25' E 000°27'714.8
2017-Nov-15 18:00N 50°23' E 000°16'714.6
2017-Nov-15 17:30N 50°21' E 000°04'714.3
2017-Nov-15 17:00N 50°20' W 000°07'714.5
2017-Nov-15 16:30N 50°18' W 000°18'2314.3
2017-Nov-15 14:53N 50°13' W 000°53'513.9
2017-Nov-15 14:30N 50°11' W 001°01'713.9
2017-Nov-15 14:00N 50°10' W 001°11'713.3
2017-Nov-15 13:30N 50°08' W 001°21'612.9
2017-Nov-15 13:01N 50°06' W 001°31'612.4
2017-Nov-15 12:31N 50°04' W 001°40'612.1
2017-Nov-15 12:01N 50°02' W 001°49'611.9
2017-Nov-15 11:30N 50°00' W 001°58'611.5
2017-Nov-15 10:59N 49°59' W 002°07'611.4
2017-Nov-15 10:30N 49°57' W 002°15'711.5
2017-Nov-15 09:56N 49°55' W 002°25'511.9
2017-Nov-15 09:30N 49°53' W 002°32'612.1
2017-Nov-15 09:00N 49°51' W 002°41'612.4
2017-Nov-15 08:30N 49°49' W 002°50'612.6
2017-Nov-15 08:00N 49°46' W 002°59'813.0
2017-Nov-15 07:23N 49°42' W 003°09'513.1
2017-Nov-15 06:59N 49°39' W 003°16'6913.1
2017-Nov-15 01:41N 49°04' W 004°48'313.0
2017-Nov-15 01:27N 49°03' W 004°52'613.2
2017-Nov-15 00:58N 48°60' W 005°01'715.2
2017-Nov-15 00:30N 48°56' W 005°10'815.4
2017-Nov-15 00:00N 48°53' W 005°20'915.2
2017-Nov-14 23:24N 48°48' W 005°33'614.7
2017-Nov-14 22:59N 48°44' W 005°39'1614.7
2017-Nov-14 21:52N 48°30' W 005°51'1014.3
2017-Nov-14 21:11N 48°21' W 005°59'2213.9
2017-Nov-14 19:37N 48°03' W 006°17'2313.5
2017-Nov-14 17:57N 47°44' W 006°35'813.4
2017-Nov-14 17:22N 47°38' W 006°42'512.9
2017-Nov-14 17:00N 47°34' W 006°45'813.9
2017-Nov-14 16:24N 47°27' W 006°52'614.6
2017-Nov-14 16:00N 47°22' W 006°57'3214.5
2017-Nov-14 13:48N 46°55' W 007°23'55014.2
2017-Nov-12 23:02N 38°31' W 012°21'014.3
2017-Nov-12 23:00N 38°30' W 012°21'1514.3
2017-Nov-12 21:57N 38°16' W 012°26'714.2
2017-Nov-12 21:29N 38°09' W 012°29'714.3
2017-Nov-12 21:00N 38°03' W 012°31'39614.9
2017-Nov-11 18:21N 31°40' W 014°36'1114.7
2017-Nov-11 17:36N 31°30' W 014°40'514.6
2017-Nov-11 17:18N 31°25' W 014°41'514.5
2017-Nov-11 16:58N 31°21' W 014°42'714.7
2017-Nov-11 16:30N 31°14' W 014°44'714.4
2017-Nov-11 16:01N 31°07' W 014°46'1014.4
2017-Nov-11 15:21N 30°58' W 014°49'614.2
2017-Nov-11 14:57N 30°52' W 014°51'614.4
2017-Nov-11 14:30N 30°46' W 014°53'714.5
2017-Nov-11 14:01N 30°39' W 014°55'714.5
2017-Nov-11 13:30N 30°32' W 014°57'2014.5
2017-Nov-11 12:08N 30°13' W 015°03'314.8
2017-Nov-11 11:57N 30°10' W 015°04'614.6
2017-Nov-11 11:31N 30°04' W 015°06'914.7
2017-Nov-11 10:55N 29°56' W 015°09'614.8
2017-Nov-11 10:30N 29°50' W 015°10'714.8
2017-Nov-11 10:01N 29°43' W 015°13'714.8
2017-Nov-11 09:31N 29°36' W 015°15'714.5
2017-Nov-11 09:01N 29°29' W 015°17'714.9
2017-Nov-11 08:31N 29°22' W 015°19'714.9
2017-Nov-11 08:00N 29°14' W 015°21'714.4
2017-Nov-11 07:31N 29°07' W 015°23'714.4
2017-Nov-11 07:00N 29°01' W 015°26'714.6
2017-Nov-11 06:30N 28°53' W 015°28'714.6
2017-Nov-11 06:00N 28°46' W 015°30'714.2
2017-Nov-11 05:30N 28°41' W 015°35'714.3
2017-Nov-11 05:00N 28°35' W 015°40'714.2
2017-Nov-11 04:30N 28°30' W 015°45'713.9
2017-Nov-11 04:00N 28°25' W 015°50'713.9
2017-Nov-11 03:30N 28°20' W 015°56'814.2
2017-Nov-11 02:58N 28°14' W 016°02'614.1
2017-Nov-11 02:31N 28°09' W 016°06'714.0
2017-Nov-11 02:01N 28°03' W 016°11'2513.4
2017-Nov-11 00:11N 27°44' W 016°28'513.7
2017-Nov-10 23:50N 27°40' W 016°31'1214.3
2017-Nov-10 23:00N 27°29' W 016°37'  

Dump ship's entire track history